EEKA 
Kärdla Airport
Kärdla, Estonia 
ICAOStatus
EEKAOperational
LatitudeLongitude
58° 59' 26" N22° 49' 50" E
58.99075622.830733
Local Time (DST+3)UTC (GMT+2)
04-19-2014 05:44 pm04-19-2014 14:44
Sunrise-SunsetLocalUTC
Begin Civil Twilight05:14 am02:14
Sunrise06:00 am03:00
Sunset08:55 pm17:55
End Civil Twilight09:41 pm18:41

Current Weather

METARObservedFlight Conditions

EEKA 190750Z 02006KT CAVOK 09/03 Q1027

Sat, Apr 19, 2014 @ 07:50 UTC(Z)

(6 Hours, 54 Minutes ago)

VFR

(Visual Flight Rules)

WindVisibilityCloudsConditions
020° at 6 knots (11 kph)
10 km or more
  • Clear skies
  • No significant weather
TemperaturesReadingsPrecipitation
Current Temp9°C (48°F)
Dewpoint3°C (37°F)
Humidity66%
Altimeter30.32"Hg
Sea Level Pressure1027mb
Field Elevation13.12'
None Recorded

Additional weather within a 92.6km radius of EEKA

Location METAR
EEKE

86.5km S (192°)

54 minutes ago
VFR VFR    MVFR MVFR    IFR IFR    LIFR LIFR    Unknown Unknown

Previous 24 hour Weather Graphs

  Loading...

CheckWX.com is intended as a tool to help pilots better visualize weather data.   It is not intended as a substitute for an official weather briefing obtained from a Flight Service Station.
CheckWX.com does not meet the FAA requirements for an official pre-flight weather briefing.   Therefore, it's important that pilots still call and obtain an official FSS pre-flight weather briefing.